Terminal Aerodrome Forecast
Issued by NWS Boston, MA

Home | Current Version | Previous Version | Text Only | Print | Product List | Glossary On
Versions: 1 2 3 4 5 6 7 8 9 10 11 12 13 14 15 16 17 18
000
FTUS41 KBOX 251122
TAFORH
TAF
KORH 251122Z 2512/2612 23010KT P6SM FEW250
     FM252200 21009KT P6SM BKN100
     FM260700 22009KT 6SM BR VCSH BKN150
     FM260800 23009KT 5SM BR VCSH BKN080
     FM260900 23009KT 4SM BR VCSH BKN010=

USA.gov is the U.S. government's official web portal to all federal, state and local government web resources and services.